sensor_id;sensor_type;location;lat;lon;timestamp;pressure;altitude;pressure_sealevel;temperature
71807;BMP280;59655;42.590;23.364;2022-10-15T00:00:37;91760.69;;;11.61
71807;BMP280;59655;42.590;23.364;2022-10-15T00:03:02;91762.25;;;11.57
71807;BMP280;59655;42.590;23.364;2022-10-15T00:05:27;91756.78;;;11.55
71807;BMP280;59655;42.590;23.364;2022-10-15T00:07:53;91758.19;;;11.56
71807;BMP280;59655;42.590;23.364;2022-10-15T00:10:19;91762.59;;;11.61
71807;BMP280;59655;42.590;23.364;2022-10-15T00:12:44;91762.09;;;11.62
71807;BMP280;59655;42.590;23.364;2022-10-15T00:15:10;91755.88;;;11.68
71807;BMP280;59655;42.590;23.364;2022-10-15T00:17:36;91756.75;;;11.62
71807;BMP280;59655;42.590;23.364;2022-10-15T00:20:07;91749.72;;;11.57
71807;BMP280;59655;42.590;23.364;2022-10-15T00:22:33;91751.97;;;11.61
71807;BMP280;59655;42.590;23.364;2022-10-15T00:24:59;91755.00;;;11.65
71807;BMP280;59655;42.590;23.364;2022-10-15T00:27:24;91757.47;;;11.63
71807;BMP280;59655;42.590;23.364;2022-10-15T00:29:49;91753.41;;;11.62
71807;BMP280;59655;42.590;23.364;2022-10-15T00:32:15;91754.63;;;11.53
71807;BMP280;59655;42.590;23.364;2022-10-15T00:34:40;91755.53;;;11.56
71807;BMP280;59655;42.590;23.364;2022-10-15T00:37:06;91746.47;;;11.59
71807;BMP280;59655;42.590;23.364;2022-10-15T00:39:32;91739.41;;;11.61
71807;BMP280;59655;42.590;23.364;2022-10-15T00:41:58;91745.44;;;11.62
71807;BMP280;59655;42.590;23.364;2022-10-15T00:46:51;91733.38;;;11.61
71807;BMP280;59655;42.590;23.364;2022-10-15T00:49:19;91735.31;;;11.60
71807;BMP280;59655;42.590;23.364;2022-10-15T00:51:56;91729.13;;;11.58
71807;BMP280;59655;42.590;23.364;2022-10-15T00:54:22;91723.81;;;11.58
71807;BMP280;59655;42.590;23.364;2022-10-15T00:56:49;91731.44;;;11.54
71807;BMP280;59655;42.590;23.364;2022-10-15T00:59:15;91720.28;;;11.55
71807;BMP280;59655;42.590;23.364;2022-10-15T01:01:42;91727.88;;;11.59
71807;BMP280;59655;42.590;23.364;2022-10-15T01:04:09;91721.16;;;11.58
71807;BMP280;59655;42.590;23.364;2022-10-15T01:06:35;91722.41;;;11.49
71807;BMP280;59655;42.590;23.364;2022-10-15T01:09:00;91718.34;;;11.48
71807;BMP280;59655;42.590;23.364;2022-10-15T01:11:45;91722.56;;;11.51
71807;BMP280;59655;42.590;23.364;2022-10-15T01:19:17;91723.13;;;11.57
71807;BMP280;59655;42.590;23.364;2022-10-15T01:22:02;91724.19;;;11.54
71807;BMP280;59655;42.590;23.364;2022-10-15T01:32:37;91715.31;;;11.52
71807;BMP280;59655;42.590;23.364;2022-10-15T01:37:53;91720.81;;;11.54
71807;BMP280;59655;42.590;23.364;2022-10-15T01:40:24;91718.16;;;11.54
71807;BMP280;59655;42.590;23.364;2022-10-15T01:42:55;91721.00;;;11.48
71807;BMP280;59655;42.590;23.364;2022-10-15T01:45:36;91715.72;;;11.40
71807;BMP280;59655;42.590;23.364;2022-10-15T01:48:11;91719.78;;;11.34
71807;BMP280;59655;42.590;23.364;2022-10-15T01:50:42;91721.53;;;11.31
71807;BMP280;59655;42.590;23.364;2022-10-15T01:53:10;91717.44;;;11.38
71807;BMP280;59655;42.590;23.364;2022-10-15T01:55:36;91720.31;;;11.48
71807;BMP280;59655;42.590;23.364;2022-10-15T01:58:04;91724.53;;;11.51
71807;BMP280;59655;42.590;23.364;2022-10-15T02:00:30;91722.97;;;11.48
71807;BMP280;59655;42.590;23.364;2022-10-15T02:03:02;91717.44;;;11.46
71807;BMP280;59655;42.590;23.364;2022-10-15T02:05:36;91728.63;;;11.44
71807;BMP280;59655;42.590;23.364;2022-10-15T02:08:15;91717.09;;;11.42
71807;BMP280;59655;42.590;23.364;2022-10-15T02:10:47;91725.22;;;11.44
71807;BMP280;59655;42.590;23.364;2022-10-15T02:13:38;91722.06;;;11.45
71807;BMP280;59655;42.590;23.364;2022-10-15T02:18:40;91722.75;;;11.46
71807;BMP280;59655;42.590;23.364;2022-10-15T02:21:29;91723.66;;;11.48
71807;BMP280;59655;42.590;23.364;2022-10-15T02:24:05;91720.09;;;11.38
71807;BMP280;59655;42.590;23.364;2022-10-15T02:26:33;91725.97;;;11.36
71807;BMP280;59655;42.590;23.364;2022-10-15T02:29:00;91726.34;;;11.40
71807;BMP280;59655;42.590;23.364;2022-10-15T02:31:29;91728.06;;;11.46
71807;BMP280;59655;42.590;23.364;2022-10-15T02:33:57;91734.63;;;11.45
71807;BMP280;59655;42.590;23.364;2022-10-15T02:36:25;91727.38;;;11.45
71807;BMP280;59655;42.590;23.364;2022-10-15T02:38:52;91733.38;;;11.46
71807;BMP280;59655;42.590;23.364;2022-10-15T02:41:19;91728.63;;;11.44
71807;BMP280;59655;42.590;23.364;2022-10-15T02:43:45;91727.38;;;11.45
71807;BMP280;59655;42.590;23.364;2022-10-15T02:46:13;91729.16;;;11.43
71807;BMP280;59655;42.590;23.364;2022-10-15T02:48:40;91725.63;;;11.40
71807;BMP280;59655;42.590;23.364;2022-10-15T02:51:05;91724.91;;;11.39
71807;BMP280;59655;42.590;23.364;2022-10-15T02:53:31;91722.75;;;11.38
71807;BMP280;59655;42.590;23.364;2022-10-15T02:55:56;91719.94;;;11.36
71807;BMP280;59655;42.590;23.364;2022-10-15T02:58:22;91730.41;;;11.34
71807;BMP280;59655;42.590;23.364;2022-10-15T03:00:48;91725.09;;;11.34
71807;BMP280;59655;42.590;23.364;2022-10-15T03:03:13;91721.53;;;11.39
71807;BMP280;59655;42.590;23.364;2022-10-15T03:05:38;91724.91;;;11.32
71807;BMP280;59655;42.590;23.364;2022-10-15T03:08:04;91727.75;;;11.34
71807;BMP280;59655;42.590;23.364;2022-10-15T03:10:29;91723.16;;;11.34
71807;BMP280;59655;42.590;23.364;2022-10-15T03:12:55;91718.69;;;11.29
71807;BMP280;59655;42.590;23.364;2022-10-15T03:15:25;91731.28;;;11.21
71807;BMP280;59655;42.590;23.364;2022-10-15T03:17:50;91718.88;;;11.24
71807;BMP280;59655;42.590;23.364;2022-10-15T03:20:16;91731.66;;;11.25
71807;BMP280;59655;42.590;23.364;2022-10-15T03:22:41;91729.00;;;11.25
71807;BMP280;59655;42.590;23.364;2022-10-15T03:25:07;91725.44;;;11.30
71807;BMP280;59655;42.590;23.364;2022-10-15T03:27:32;91732.69;;;11.30
71807;BMP280;59655;42.590;23.364;2022-10-15T03:29:58;91731.09;;;11.27
71807;BMP280;59655;42.590;23.364;2022-10-15T03:32:23;91735.16;;;11.28
71807;BMP280;59655;42.590;23.364;2022-10-15T03:34:49;91727.91;;;11.28
71807;BMP280;59655;42.590;23.364;2022-10-15T03:37:14;91730.72;;;11.30
71807;BMP280;59655;42.590;23.364;2022-10-15T03:39:39;91714.63;;;11.21
71807;BMP280;59655;42.590;23.364;2022-10-15T03:42:05;91731.81;;;11.27
71807;BMP280;59655;42.590;23.364;2022-10-15T03:44:30;91727.91;;;11.28
71807;BMP280;59655;42.590;23.364;2022-10-15T03:46:55;91718.00;;;11.29
71807;BMP280;59655;42.590;23.364;2022-10-15T03:49:21;91722.06;;;11.30
71807;BMP280;59655;42.590;23.364;2022-10-15T03:51:46;91724.91;;;11.32
71807;BMP280;59655;42.590;23.364;2022-10-15T03:54:12;91726.16;;;11.31
71807;BMP280;59655;42.590;23.364;2022-10-15T03:56:37;91722.78;;;11.15
71807;BMP280;59655;42.590;23.364;2022-10-15T03:59:03;91725.25;;;11.21
71807;BMP280;59655;42.590;23.364;2022-10-15T04:01:28;91723.84;;;11.19
71807;BMP280;59655;42.590;23.364;2022-10-15T04:03:53;91720.31;;;11.17
71807;BMP280;59655;42.590;23.364;2022-10-15T04:06:19;91732.16;;;11.16
71807;BMP280;59655;42.590;23.364;2022-10-15T04:08:44;91737.13;;;11.19
71807;BMP280;59655;42.590;23.364;2022-10-15T04:11:10;91729.00;;;11.17
71807;BMP280;59655;42.590;23.364;2022-10-15T04:13:35;91721.38;;;11.22
71807;BMP280;59655;42.590;23.364;2022-10-15T04:16:03;91734.81;;;11.16
71807;BMP280;59655;42.590;23.364;2022-10-15T04:18:29;91725.78;;;11.11
71807;BMP280;59655;42.590;23.364;2022-10-15T04:20:58;91730.38;;;11.11
71807;BMP280;59655;42.590;23.364;2022-10-15T04:23:23;91725.97;;;11.13
71807;BMP280;59655;42.590;23.364;2022-10-15T04:25:49;91724.03;;;11.14
71807;BMP280;59655;42.590;23.364;2022-10-15T04:28:14;91730.22;;;11.16
71807;BMP280;59655;42.590;23.364;2022-10-15T04:30:39;91727.72;;;11.11
71807;BMP280;59655;42.590;23.364;2022-10-15T04:33:05;91733.75;;;11.11
71807;BMP280;59655;42.590;23.364;2022-10-15T04:35:30;91730.56;;;11.13
71807;BMP280;59655;42.590;23.364;2022-10-15T04:37:57;91735.16;;;11.12
71807;BMP280;59655;42.590;23.364;2022-10-15T04:40:23;91738.19;;;11.09
71807;BMP280;59655;42.590;23.364;2022-10-15T04:42:49;91729.50;;;11.08
71807;BMP280;59655;42.590;23.364;2022-10-15T04:45:14;91732.50;;;10.97
71807;BMP280;59655;42.590;23.364;2022-10-15T04:47:39;91730.22;;;11.01
71807;BMP280;59655;42.590;23.364;2022-10-15T04:50:05;91734.81;;;11.08
71807;BMP280;59655;42.590;23.364;2022-10-15T04:52:33;91742.59;;;11.14
71807;BMP280;59655;42.590;23.364;2022-10-15T04:54:58;91748.09;;;11.08
71807;BMP280;59655;42.590;23.364;2022-10-15T04:57:24;91747.56;;;11.10
71807;BMP280;59655;42.590;23.364;2022-10-15T04:59:51;91744.22;;;11.02
71807;BMP280;59655;42.590;23.364;2022-10-15T05:02:17;91752.19;;;11.02
71807;BMP280;59655;42.590;23.364;2022-10-15T05:04:42;91750.75;;;11.08
71807;BMP280;59655;42.590;23.364;2022-10-15T05:07:08;91756.59;;;11.07
71807;BMP280;59655;42.590;23.364;2022-10-15T05:09:33;91760.31;;;11.04
71807;BMP280;59655;42.590;23.364;2022-10-15T05:11:58;91757.31;;;11.07
71807;BMP280;59655;42.590;23.364;2022-10-15T05:14:24;91758.53;;;11.06
71807;BMP280;59655;42.590;23.364;2022-10-15T05:16:49;91761.56;;;11.10
71807;BMP280;59655;42.590;23.364;2022-10-15T05:19:15;91773.78;;;11.13
71807;BMP280;59655;42.590;23.364;2022-10-15T05:21:41;91769.53;;;11.18
71807;BMP280;59655;42.590;23.364;2022-10-15T05:24:06;91768.28;;;11.19
71807;BMP280;59655;42.590;23.364;2022-10-15T05:26:32;91767.75;;;11.21
71807;BMP280;59655;42.590;23.364;2022-10-15T05:28:58;91770.78;;;11.25
71807;BMP280;59655;42.590;23.364;2022-10-15T05:31:26;91770.59;;;11.23
71807;BMP280;59655;42.590;23.364;2022-10-15T05:33:52;91776.25;;;11.27
71807;BMP280;59655;42.590;23.364;2022-10-15T05:36:26;91768.84;;;11.17
71807;BMP280;59655;42.590;23.364;2022-10-15T05:38:54;91771.13;;;11.21
71807;BMP280;59655;42.590;23.364;2022-10-15T05:41:19;91766.88;;;11.18
71807;BMP280;59655;42.590;23.364;2022-10-15T05:43:46;91773.97;;;11.23
71807;BMP280;59655;42.590;23.364;2022-10-15T05:46:12;91779.44;;;11.17
71807;BMP280;59655;42.590;23.364;2022-10-15T05:48:37;91775.00;;;11.20
71807;BMP280;59655;42.590;23.364;2022-10-15T05:51:05;91782.81;;;11.26
71807;BMP280;59655;42.590;23.364;2022-10-15T05:53:30;91786.88;;;11.19
71807;BMP280;59655;42.590;23.364;2022-10-15T05:55:56;91792.19;;;11.27
71807;BMP280;59655;42.590;23.364;2022-10-15T05:58:24;91795.41;;;11.33
71807;BMP280;59655;42.590;23.364;2022-10-15T06:00:56;91796.13;;;11.41
71807;BMP280;59655;42.590;23.364;2022-10-15T06:03:23;91798.41;;;11.45
71807;BMP280;59655;42.590;23.364;2022-10-15T06:05:48;91800.19;;;11.42
71807;BMP280;59655;42.590;23.364;2022-10-15T06:08:14;91808.16;;;11.42
71807;BMP280;59655;42.590;23.364;2022-10-15T06:10:39;91802.47;;;11.46
71807;BMP280;59655;42.590;23.364;2022-10-15T06:13:05;91806.56;;;11.47
71807;BMP280;59655;42.590;23.364;2022-10-15T06:15:31;91803.19;;;11.46
71807;BMP280;59655;42.590;23.364;2022-10-15T06:17:57;91804.09;;;11.49
71807;BMP280;59655;42.590;23.364;2022-10-15T06:20:22;91811.00;;;11.52
71807;BMP280;59655;42.590;23.364;2022-10-15T06:22:47;91812.91;;;11.51
71807;BMP280;59655;42.590;23.364;2022-10-15T06:25:13;91809.03;;;11.52
71807;BMP280;59655;42.590;23.364;2022-10-15T06:27:38;91813.09;;;11.53
71807;BMP280;59655;42.590;23.364;2022-10-15T06:30:04;91819.31;;;11.56
71807;BMP280;59655;42.590;23.364;2022-10-15T06:32:29;91822.84;;;11.58
71807;BMP280;59655;42.590;23.364;2022-10-15T06:34:55;91829.03;;;11.61
71807;BMP280;59655;42.590;23.364;2022-10-15T06:37:20;91832.25;;;11.67
71807;BMP280;59655;42.590;23.364;2022-10-15T06:39:46;91839.88;;;11.71
71807;BMP280;59655;42.590;23.364;2022-10-15T06:42:11;91830.28;;;11.75
71807;BMP280;59655;42.590;23.364;2022-10-15T06:44:38;91844.66;;;11.80
71807;BMP280;59655;42.590;23.364;2022-10-15T06:47:04;91840.22;;;11.82
71807;BMP280;59655;42.590;23.364;2022-10-15T06:49:29;91829.94;;;11.87
71807;BMP280;59655;42.590;23.364;2022-10-15T06:51:54;91837.75;;;11.92
71807;BMP280;59655;42.590;23.364;2022-10-15T06:54:20;91833.66;;;11.91
71807;BMP280;59655;42.590;23.364;2022-10-15T06:56:45;91833.84;;;11.93
71807;BMP280;59655;42.590;23.364;2022-10-15T06:59:10;91834.16;;;11.90
71807;BMP280;59655;42.590;23.364;2022-10-15T07:01:36;91832.25;;;11.90
71807;BMP280;59655;42.590;23.364;2022-10-15T07:04:01;91838.44;;;11.93
71807;BMP280;59655;42.590;23.364;2022-10-15T07:06:27;91836.31;;;11.91
71807;BMP280;59655;42.590;23.364;2022-10-15T07:08:52;91832.03;;;11.88
71807;BMP280;59655;42.590;23.364;2022-10-15T07:11:17;91843.06;;;11.92
71807;BMP280;59655;42.590;23.364;2022-10-15T07:13:43;91842.50;;;11.94
71807;BMP280;59655;42.590;23.364;2022-10-15T07:16:10;91840.59;;;11.87
71807;BMP280;59655;42.590;23.364;2022-10-15T07:18:36;91841.81;;;11.86
71807;BMP280;59655;42.590;23.364;2022-10-15T07:21:04;91843.25;;;11.87
71807;BMP280;59655;42.590;23.364;2022-10-15T07:23:30;91851.22;;;11.87
71807;BMP280;59655;42.590;23.364;2022-10-15T07:25:56;91843.59;;;11.83
71807;BMP280;59655;42.590;23.364;2022-10-15T07:28:22;91840.03;;;11.80
71807;BMP280;59655;42.590;23.364;2022-10-15T07:30:47;91847.13;;;11.78
71807;BMP280;59655;42.590;23.364;2022-10-15T07:33:13;91849.97;;;11.80
71807;BMP280;59655;42.590;23.364;2022-10-15T07:35:38;91843.94;;;11.79
71807;BMP280;59655;42.590;23.364;2022-10-15T07:38:03;91850.50;;;11.78
71807;BMP280;59655;42.590;23.364;2022-10-15T07:40:29;91847.84;;;11.78
71807;BMP280;59655;42.590;23.364;2022-10-15T07:42:58;91848.91;;;11.83
71807;BMP280;59655;42.590;23.364;2022-10-15T07:45:25;91855.97;;;11.88
71807;BMP280;59655;42.590;23.364;2022-10-15T07:47:51;91859.19;;;11.94
71807;BMP280;59655;42.590;23.364;2022-10-15T07:50:17;91854.22;;;11.98
71807;BMP280;59655;42.590;23.364;2022-10-15T07:52:43;91859.00;;;12.00
71807;BMP280;59655;42.590;23.364;2022-10-15T07:55:09;91856.16;;;12.05
71807;BMP280;59655;42.590;23.364;2022-10-15T07:57:34;91862.19;;;12.06
71807;BMP280;59655;42.590;23.364;2022-10-15T08:00:00;91859.34;;;12.04
71807;BMP280;59655;42.590;23.364;2022-10-15T08:02:25;91856.69;;;12.04
71807;BMP280;59655;42.590;23.364;2022-10-15T08:04:51;91858.63;;;12.03
71807;BMP280;59655;42.590;23.364;2022-10-15T08:07:16;91862.72;;;12.04
71807;BMP280;59655;42.590;23.364;2022-10-15T08:09:42;91864.13;;;12.05
71807;BMP280;59655;42.590;23.364;2022-10-15T08:12:07;91857.38;;;12.04
71807;BMP280;59655;42.590;23.364;2022-10-15T08:14:34;91859.00;;;12.08
71807;BMP280;59655;42.590;23.364;2022-10-15T08:17:01;91864.13;;;12.05
71807;BMP280;59655;42.590;23.364;2022-10-15T08:19:27;91858.28;;;12.07
71807;BMP280;59655;42.590;23.364;2022-10-15T08:21:52;91858.28;;;12.07
71807;BMP280;59655;42.590;23.364;2022-10-15T08:24:18;91860.75;;;12.13
71807;BMP280;59655;42.590;23.364;2022-10-15T08:26:43;91852.59;;;12.11
71807;BMP280;59655;42.590;23.364;2022-10-15T08:29:09;91857.03;;;12.16
71807;BMP280;59655;42.590;23.364;2022-10-15T08:31:35;91848.88;;;12.21
71807;BMP280;59655;42.590;23.364;2022-10-15T08:34:01;91844.78;;;12.20
71807;BMP280;59655;42.590;23.364;2022-10-15T08:36:26;91841.22;;;12.18
71807;BMP280;59655;42.590;23.364;2022-10-15T08:38:52;91851.34;;;12.27
71807;BMP280;59655;42.590;23.364;2022-10-15T08:43:46;91845.81;;;12.33
71807;BMP280;59655;42.590;23.364;2022-10-15T08:46:25;91845.06;;;12.40
71807;BMP280;59655;42.590;23.364;2022-10-15T08:48:55;91842.75;;;12.44
71807;BMP280;59655;42.590;23.364;2022-10-15T08:51:24;91844.53;;;12.49
71807;BMP280;59655;42.590;23.364;2022-10-15T08:54:01;91847.88;;;12.49
71807;BMP280;59655;42.590;23.364;2022-10-15T08:56:33;91851.06;;;12.56
71807;BMP280;59655;42.590;23.364;2022-10-15T08:59:39;91848.19;;;12.61
71807;BMP280;59655;42.590;23.364;2022-10-15T09:02:16;91848.91;;;12.69
71807;BMP280;59655;42.590;23.364;2022-10-15T09:04:54;91854.00;;;12.75
71807;BMP280;59655;42.590;23.364;2022-10-15T09:07:34;91852.94;;;12.78
71807;BMP280;59655;42.590;23.364;2022-10-15T09:15:22;91849.53;;;12.85
71807;BMP280;59655;42.590;23.364;2022-10-15T09:17:50;91847.56;;;12.86
71807;BMP280;59655;42.590;23.364;2022-10-15T09:20:20;91854.88;;;12.85
71807;BMP280;59655;42.590;23.364;2022-10-15T09:22:49;91860.31;;;12.95
71807;BMP280;59655;42.590;23.364;2022-10-15T09:25:18;91858.53;;;12.98
71807;BMP280;59655;42.590;23.364;2022-10-15T09:27:46;91860.44;;;13.05
71807;BMP280;59655;42.590;23.364;2022-10-15T09:32:49;91861.72;;;13.04
71807;BMP280;59655;42.590;23.364;2022-10-15T09:35:43;91853.38;;;13.00
71807;BMP280;59655;42.590;23.364;2022-10-15T09:43:40;91853.88;;;13.06
71807;BMP280;59655;42.590;23.364;2022-10-15T09:46:08;91856.69;;;13.08
71807;BMP280;59655;42.590;23.364;2022-10-15T09:48:46;91851.53;;;13.10
71807;BMP280;59655;42.590;23.364;2022-10-15T09:56:45;91846.97;;;13.28
71807;BMP280;59655;42.590;23.364;2022-10-15T09:59:20;91845.50;;;13.34
71807;BMP280;59655;42.590;23.364;2022-10-15T10:01:58;91848.84;;;13.43
71807;BMP280;59655;42.590;23.364;2022-10-15T10:04:32;91841.88;;;13.47
71807;BMP280;59655;42.590;23.364;2022-10-15T10:07:03;91844.00;;;13.49
71807;BMP280;59655;42.590;23.364;2022-10-15T10:09:45;91843.84;;;13.47
71807;BMP280;59655;42.590;23.364;2022-10-15T10:12:20;91853.75;;;13.54
71807;BMP280;59655;42.590;23.364;2022-10-15T10:14:55;91849.44;;;13.58
71807;BMP280;59655;42.590;23.364;2022-10-15T10:17:26;91853.84;;;13.64
71807;BMP280;59655;42.590;23.364;2022-10-15T10:20:22;91851.13;;;13.71
71807;BMP280;59655;42.590;23.364;2022-10-15T10:22:56;91857.00;;;13.70
71807;BMP280;59655;42.590;23.364;2022-10-15T10:25:37;91849.19;;;13.72
71807;BMP280;59655;42.590;23.364;2022-10-15T10:30:37;91851.38;;;13.66
71807;BMP280;59655;42.590;23.364;2022-10-15T10:33:03;91855.56;;;13.69
71807;BMP280;59655;42.590;23.364;2022-10-15T10:35:44;91846.03;;;13.66
71807;BMP280;59655;42.590;23.364;2022-10-15T10:38:42;91833.53;;;13.68
71807;BMP280;59655;42.590;23.364;2022-10-15T10:41:18;91833.00;;;13.70
71807;BMP280;59655;42.590;23.364;2022-10-15T10:43:54;91830.81;;;13.76
71807;BMP280;59655;42.590;23.364;2022-10-15T10:46:21;91837.16;;;13.80
71807;BMP280;59655;42.590;23.364;2022-10-15T10:48:52;91837.88;;;13.81
71807;BMP280;59655;42.590;23.364;2022-10-15T10:51:25;91833.25;;;13.81
71807;BMP280;59655;42.590;23.364;2022-10-15T10:54:03;91834.81;;;13.84
71807;BMP280;59655;42.590;23.364;2022-10-15T10:56:39;91831.47;;;13.84
71807;BMP280;59655;42.590;23.364;2022-10-15T10:59:18;91837.31;;;13.82
71807;BMP280;59655;42.590;23.364;2022-10-15T11:01:45;91831.47;;;13.84
71807;BMP280;59655;42.590;23.364;2022-10-15T11:04:24;91830.22;;;13.85
71807;BMP280;59655;42.590;23.364;2022-10-15T11:12:27;91830.53;;;13.89
71807;BMP280;59655;42.590;23.364;2022-10-15T11:18:24;91820.84;;;14.11
71807;BMP280;59655;42.590;23.364;2022-10-15T11:31:41;91823.91;;;14.25
71807;BMP280;59655;42.590;23.364;2022-10-15T11:40:05;91823.69;;;14.31
71807;BMP280;59655;42.590;23.364;2022-10-15T11:42:39;91813.00;;;14.31
71807;BMP280;59655;42.590;23.364;2022-10-15T11:47:38;91806.59;;;14.34
71807;BMP280;59655;42.590;23.364;2022-10-15T11:50:21;91809.97;;;14.34
71807;BMP280;59655;42.590;23.364;2022-10-15T11:58:37;91821.19;;;14.33
71807;BMP280;59655;42.590;23.364;2022-10-15T12:01:28;91828.09;;;14.36
71807;BMP280;59655;42.590;23.364;2022-10-15T12:04:09;91819.78;;;14.32
71807;BMP280;59655;42.590;23.364;2022-10-15T12:06:38;91821.38;;;14.35
71807;BMP280;59655;42.590;23.364;2022-10-15T12:09:05;91823.84;;;14.33
71807;BMP280;59655;42.590;23.364;2022-10-15T12:11:44;91822.97;;;14.30
71807;BMP280;59655;42.590;23.364;2022-10-15T12:17:10;91835.50;;;14.27
71807;BMP280;59655;42.590;23.364;2022-10-15T12:19:52;91827.47;;;14.27
71807;BMP280;59655;42.590;23.364;2022-10-15T12:24:56;91828.19;;;14.28
71807;BMP280;59655;42.590;23.364;2022-10-15T12:27:27;91827.78;;;14.32
71807;BMP280;59655;42.590;23.364;2022-10-15T12:32:37;91829.38;;;14.35
71807;BMP280;59655;42.590;23.364;2022-10-15T12:35:06;91827.25;;;14.33
71807;BMP280;59655;42.590;23.364;2022-10-15T12:37:43;91825.41;;;14.36
71807;BMP280;59655;42.590;23.364;2022-10-15T12:40:30;91820.22;;;14.38
71807;BMP280;59655;42.590;23.364;2022-10-15T12:42:58;91821.38;;;14.35
71807;BMP280;59655;42.590;23.364;2022-10-15T12:45:33;91819.53;;;14.37
71807;BMP280;59655;42.590;23.364;2022-10-15T12:48:19;91821.66;;;14.39
71807;BMP280;59655;42.590;23.364;2022-10-15T12:50:50;91816.63;;;14.43
71807;BMP280;59655;42.590;23.364;2022-10-15T12:53:41;91810.56;;;14.42
71807;BMP280;59655;42.590;23.364;2022-10-15T13:03:57;91819.69;;;14.39
71807;BMP280;59655;42.590;23.364;2022-10-15T13:06:32;91816.47;;;14.41
71807;BMP280;59655;42.590;23.364;2022-10-15T13:11:48;91818.03;;;14.44
71807;BMP280;59655;42.590;23.364;2022-10-15T13:14:19;91821.44;;;14.44
71807;BMP280;59655;42.590;23.364;2022-10-15T13:16:47;91824.25;;;14.46
71807;BMP280;59655;42.590;23.364;2022-10-15T13:19:24;91826.34;;;14.48
71807;BMP280;59655;42.590;23.364;2022-10-15T13:21:53;91819.38;;;14.53
71807;BMP280;59655;42.590;23.364;2022-10-15T13:24:21;91821.63;;;14.56
71807;BMP280;59655;42.590;23.364;2022-10-15T13:26:48;91817.53;;;14.55
71807;BMP280;59655;42.590;23.364;2022-10-15T13:29:22;91814.56;;;14.51
71807;BMP280;59655;42.590;23.364;2022-10-15T13:31:48;91804.28;;;14.47
71807;BMP280;59655;42.590;23.364;2022-10-15T13:36:43;91809.06;;;14.49
71807;BMP280;59655;42.590;23.364;2022-10-15T13:41:50;91813.25;;;14.42
71807;BMP280;59655;42.590;23.364;2022-10-15T13:44:23;91812.22;;;14.38
71807;BMP280;59655;42.590;23.364;2022-10-15T13:46:49;91815.06;;;14.40
71807;BMP280;59655;42.590;23.364;2022-10-15T13:49:14;91821.38;;;14.35
71807;BMP280;59655;42.590;23.364;2022-10-15T13:51:42;91815.84;;;14.33
71807;BMP280;59655;42.590;23.364;2022-10-15T13:54:29;91817.19;;;14.24
71807;BMP280;59655;42.590;23.364;2022-10-15T13:56:59;91819.84;;;14.24
71807;BMP280;59655;42.590;23.364;2022-10-15T13:59:27;91816.47;;;14.23
71807;BMP280;59655;42.590;23.364;2022-10-15T14:01:55;91808.88;;;14.20
71807;BMP280;59655;42.590;23.364;2022-10-15T14:04:29;91811.25;;;14.16
71807;BMP280;59655;42.590;23.364;2022-10-15T14:07:00;91821.19;;;14.15
71807;BMP280;59655;42.590;23.364;2022-10-15T14:09:34;91817.81;;;14.15
71807;BMP280;59655;42.590;23.364;2022-10-15T14:12:04;91825.66;;;14.13
71807;BMP280;59655;42.590;23.364;2022-10-15T14:17:08;91817.53;;;14.11
71807;BMP280;59655;42.590;23.364;2022-10-15T14:19:36;91814.69;;;14.09
71807;BMP280;59655;42.590;23.364;2022-10-15T14:22:03;91821.81;;;14.06
71807;BMP280;59655;42.590;23.364;2022-10-15T14:24:32;91819.03;;;14.04
71807;BMP280;59655;42.590;23.364;2022-10-15T14:27:11;91820.41;;;14.05
71807;BMP280;59655;42.590;23.364;2022-10-15T14:29:44;91814.53;;;14.06
71807;BMP280;59655;42.590;23.364;2022-10-15T14:34:56;91802.59;;;14.07
71807;BMP280;59655;42.590;23.364;2022-10-15T14:42:31;91805.31;;;14.00
71807;BMP280;59655;42.590;23.364;2022-10-15T14:47:37;91803.63;;;13.95
71807;BMP280;59655;42.590;23.364;2022-10-15T14:50:04;91806.28;;;13.95
71807;BMP280;59655;42.590;23.364;2022-10-15T14:52:30;91805.38;;;13.92
71807;BMP280;59655;42.590;23.364;2022-10-15T14:55:12;91804.22;;;13.86
71807;BMP280;59655;42.590;23.364;2022-10-15T14:57:40;91815.81;;;13.80
71807;BMP280;59655;42.590;23.364;2022-10-15T15:02:42;91815.22;;;13.72
71807;BMP280;59655;42.590;23.364;2022-10-15T15:05:16;91817.53;;;13.68
71807;BMP280;59655;42.590;23.364;2022-10-15T15:07:42;91827.38;;;13.66
71807;BMP280;59655;42.590;23.364;2022-10-15T15:10:09;91827.38;;;13.66
71807;BMP280;59655;42.590;23.364;2022-10-15T15:12:37;91833.06;;;13.62
71807;BMP280;59655;42.590;23.364;2022-10-15T15:15:03;91836.66;;;13.57
71807;BMP280;59655;42.590;23.364;2022-10-15T15:17:29;91824.41;;;13.54
71807;BMP280;59655;42.590;23.364;2022-10-15T15:19:56;91841.88;;;13.47
71807;BMP280;59655;42.590;23.364;2022-10-15T15:22:32;91841.38;;;13.41
71807;BMP280;59655;42.590;23.364;2022-10-15T15:25:00;91843.03;;;13.36
71807;BMP280;59655;42.590;23.364;2022-10-15T15:27:31;91848.91;;;13.35
71807;BMP280;59655;42.590;23.364;2022-10-15T15:30:03;91842.34;;;13.28
71807;BMP280;59655;42.590;23.364;2022-10-15T15:32:28;91851.06;;;13.29
71807;BMP280;59655;42.590;23.364;2022-10-15T15:34:54;91845.97;;;13.23
71807;BMP280;59655;42.590;23.364;2022-10-15T15:37:22;91848.44;;;13.21
71807;BMP280;59655;42.590;23.364;2022-10-15T15:39:48;91854.53;;;13.14
71807;BMP280;59655;42.590;23.364;2022-10-15T15:42:16;91850.78;;;13.17
71807;BMP280;59655;42.590;23.364;2022-10-15T15:44:42;91860.56;;;13.14
71807;BMP280;59655;42.590;23.364;2022-10-15T15:47:08;91865.75;;;13.12
71807;BMP280;59655;42.590;23.364;2022-10-15T15:49:34;91874.09;;;13.09
71807;BMP280;59655;42.590;23.364;2022-10-15T15:52:00;91871.63;;;13.03
71807;BMP280;59655;42.590;23.364;2022-10-15T15:54:25;91880.56;;;12.98
71807;BMP280;59655;42.590;23.364;2022-10-15T15:56:51;91880.19;;;12.94
71807;BMP280;59655;42.590;23.364;2022-10-15T15:59:16;91886.78;;;12.93
71807;BMP280;59655;42.590;23.364;2022-10-15T16:01:44;91890.84;;;12.94
71807;BMP280;59655;42.590;23.364;2022-10-15T16:04:10;91900.88;;;12.78